sensor_id;sensor_type;location;lat;lon;timestamp;P1;durP1;ratioP1;P2;durP2;ratioP2
34928;SDS011;21133;48.048;7.724;2024-01-30T00:01:53;6.53;;;5.50;;
34928;SDS011;21133;48.048;7.724;2024-01-30T00:04:19;6.20;;;5.63;;
34928;SDS011;21133;48.048;7.724;2024-01-30T00:06:45;6.70;;;6.13;;
34928;SDS011;21133;48.048;7.724;2024-01-30T00:09:11;7.33;;;6.60;;
34928;SDS011;21133;48.048;7.724;2024-01-30T00:11:37;7.43;;;6.83;;
34928;SDS011;21133;48.048;7.724;2024-01-30T00:14:04;7.70;;;6.40;;
34928;SDS011;21133;48.048;7.724;2024-01-30T00:16:30;5.53;;;5.23;;
34928;SDS011;21133;48.048;7.724;2024-01-30T00:18:56;8.20;;;7.07;;
34928;SDS011;21133;48.048;7.724;2024-01-30T00:21:22;7.80;;;6.90;;
34928;SDS011;21133;48.048;7.724;2024-01-30T00:23:48;9.67;;;6.83;;
34928;SDS011;21133;48.048;7.724;2024-01-30T00:26:14;6.60;;;6.10;;
34928;SDS011;21133;48.048;7.724;2024-01-30T00:28:41;10.03;;;6.80;;
34928;SDS011;21133;48.048;7.724;2024-01-30T00:31:07;7.83;;;6.80;;
34928;SDS011;21133;48.048;7.724;2024-01-30T00:33:37;8.17;;;7.37;;
34928;SDS011;21133;48.048;7.724;2024-01-30T00:36:03;7.20;;;6.50;;
34928;SDS011;21133;48.048;7.724;2024-01-30T00:38:29;6.20;;;5.70;;
34928;SDS011;21133;48.048;7.724;2024-01-30T00:40:55;5.90;;;5.50;;
34928;SDS011;21133;48.048;7.724;2024-01-30T00:43:21;6.87;;;6.30;;
34928;SDS011;21133;48.048;7.724;2024-01-30T00:45:47;6.10;;;5.70;;
34928;SDS011;21133;48.048;7.724;2024-01-30T00:48:13;6.63;;;6.00;;
34928;SDS011;21133;48.048;7.724;2024-01-30T00:50:39;8.00;;;5.57;;
34928;SDS011;21133;48.048;7.724;2024-01-30T00:53:04;5.63;;;5.30;;
34928;SDS011;21133;48.048;7.724;2024-01-30T00:55:31;6.43;;;5.70;;
34928;SDS011;21133;48.048;7.724;2024-01-30T00:57:57;6.97;;;5.30;;
34928;SDS011;21133;48.048;7.724;2024-01-30T01:00:23;6.17;;;5.57;;
34928;SDS011;21133;48.048;7.724;2024-01-30T01:02:53;6.30;;;5.77;;
34928;SDS011;21133;48.048;7.724;2024-01-30T01:05:20;5.93;;;5.53;;
34928;SDS011;21133;48.048;7.724;2024-01-30T01:07:46;8.13;;;5.73;;
34928;SDS011;21133;48.048;7.724;2024-01-30T01:10:13;5.60;;;5.30;;
34928;SDS011;21133;48.048;7.724;2024-01-30T01:12:39;4.70;;;4.50;;
34928;SDS011;21133;48.048;7.724;2024-01-30T01:15:05;5.70;;;5.30;;
34928;SDS011;21133;48.048;7.724;2024-01-30T01:17:34;5.87;;;5.13;;
34928;SDS011;21133;48.048;7.724;2024-01-30T01:20:00;5.20;;;4.90;;
34928;SDS011;21133;48.048;7.724;2024-01-30T01:22:26;5.67;;;5.27;;
34928;SDS011;21133;48.048;7.724;2024-01-30T01:24:52;6.13;;;5.53;;
34928;SDS011;21133;48.048;7.724;2024-01-30T01:27:18;5.57;;;5.13;;
34928;SDS011;21133;48.048;7.724;2024-01-30T01:29:44;5.33;;;4.93;;
34928;SDS011;21133;48.048;7.724;2024-01-30T01:32:10;5.23;;;4.77;;
34928;SDS011;21133;48.048;7.724;2024-01-30T01:34:36;10.50;;;7.30;;
34928;SDS011;21133;48.048;7.724;2024-01-30T01:37:02;6.87;;;6.20;;
34928;SDS011;21133;48.048;7.724;2024-01-30T01:39:28;4.70;;;4.50;;
34928;SDS011;21133;48.048;7.724;2024-01-30T01:41:54;4.87;;;4.57;;
34928;SDS011;21133;48.048;7.724;2024-01-30T01:44:20;5.90;;;4.90;;
34928;SDS011;21133;48.048;7.724;2024-01-30T01:46:46;5.60;;;5.23;;
34928;SDS011;21133;48.048;7.724;2024-01-30T01:49:13;6.50;;;4.83;;
34928;SDS011;21133;48.048;7.724;2024-01-30T01:51:39;5.50;;;5.10;;
34928;SDS011;21133;48.048;7.724;2024-01-30T01:54:06;5.90;;;5.50;;
34928;SDS011;21133;48.048;7.724;2024-01-30T01:56:32;8.20;;;5.17;;
34928;SDS011;21133;48.048;7.724;2024-01-30T01:58:59;9.03;;;5.87;;
34928;SDS011;21133;48.048;7.724;2024-01-30T02:01:26;4.57;;;4.37;;
34928;SDS011;21133;48.048;7.724;2024-01-30T02:03:53;7.07;;;5.90;;
34928;SDS011;21133;48.048;7.724;2024-01-30T02:06:19;6.67;;;6.00;;
34928;SDS011;21133;48.048;7.724;2024-01-30T02:08:45;7.43;;;6.53;;
34928;SDS011;21133;48.048;7.724;2024-01-30T02:11:11;5.20;;;4.80;;
34928;SDS011;21133;48.048;7.724;2024-01-30T02:13:38;6.20;;;5.60;;
34928;SDS011;21133;48.048;7.724;2024-01-30T02:16:04;6.20;;;5.57;;
34928;SDS011;21133;48.048;7.724;2024-01-30T02:18:30;5.50;;;5.10;;
34928;SDS011;21133;48.048;7.724;2024-01-30T02:20:56;6.87;;;5.53;;
34928;SDS011;21133;48.048;7.724;2024-01-30T02:23:26;9.03;;;5.27;;
34928;SDS011;21133;48.048;7.724;2024-01-30T02:25:52;4.80;;;4.40;;
34928;SDS011;21133;48.048;7.724;2024-01-30T02:28:19;5.27;;;4.93;;
34928;SDS011;21133;48.048;7.724;2024-01-30T02:30:45;5.17;;;4.67;;
34928;SDS011;21133;48.048;7.724;2024-01-30T02:33:13;5.10;;;4.63;;
34928;SDS011;21133;48.048;7.724;2024-01-30T02:35:39;5.00;;;4.60;;
34928;SDS011;21133;48.048;7.724;2024-01-30T02:38:05;5.77;;;5.23;;
34928;SDS011;21133;48.048;7.724;2024-01-30T02:40:31;7.70;;;4.47;;
34928;SDS011;21133;48.048;7.724;2024-01-30T02:42:58;9.20;;;4.93;;
34928;SDS011;21133;48.048;7.724;2024-01-30T02:45:24;4.27;;;4.07;;
34928;SDS011;21133;48.048;7.724;2024-01-30T02:47:50;6.13;;;5.53;;
34928;SDS011;21133;48.048;7.724;2024-01-30T02:50:16;5.93;;;5.30;;
34928;SDS011;21133;48.048;7.724;2024-01-30T02:52:42;4.67;;;4.37;;
34928;SDS011;21133;48.048;7.724;2024-01-30T02:55:11;4.83;;;4.43;;
34928;SDS011;21133;48.048;7.724;2024-01-30T02:57:38;4.77;;;4.30;;
34928;SDS011;21133;48.048;7.724;2024-01-30T03:00:04;4.13;;;3.97;;
34928;SDS011;21133;48.048;7.724;2024-01-30T03:02:31;4.53;;;4.13;;
34928;SDS011;21133;48.048;7.724;2024-01-30T03:04:57;5.00;;;4.60;;
34928;SDS011;21133;48.048;7.724;2024-01-30T03:07:23;5.27;;;4.87;;
34928;SDS011;21133;48.048;7.724;2024-01-30T03:09:49;5.20;;;4.70;;
34928;SDS011;21133;48.048;7.724;2024-01-30T03:12:15;4.97;;;4.57;;
34928;SDS011;21133;48.048;7.724;2024-01-30T03:14:41;4.30;;;3.93;;
34928;SDS011;21133;48.048;7.724;2024-01-30T03:17:07;4.40;;;4.10;;
34928;SDS011;21133;48.048;7.724;2024-01-30T03:19:35;4.30;;;4.10;;
34928;SDS011;21133;48.048;7.724;2024-01-30T03:22:01;3.30;;;3.00;;
34928;SDS011;21133;48.048;7.724;2024-01-30T03:24:26;2.83;;;2.73;;
34928;SDS011;21133;48.048;7.724;2024-01-30T03:26:53;3.07;;;2.97;;
34928;SDS011;21133;48.048;7.724;2024-01-30T03:29:19;14.13;;;6.00;;
34928;SDS011;21133;48.048;7.724;2024-01-30T03:31:45;23.80;;;10.63;;
34928;SDS011;21133;48.048;7.724;2024-01-30T03:34:11;9.63;;;6.70;;
34928;SDS011;21133;48.048;7.724;2024-01-30T03:36:37;25.73;;;8.30;;
34928;SDS011;21133;48.048;7.724;2024-01-30T03:39:03;12.90;;;7.73;;
34928;SDS011;21133;48.048;7.724;2024-01-30T03:41:29;6.47;;;5.10;;
34928;SDS011;21133;48.048;7.724;2024-01-30T03:43:55;4.03;;;3.63;;
34928;SDS011;21133;48.048;7.724;2024-01-30T03:46:21;3.73;;;3.20;;
34928;SDS011;21133;48.048;7.724;2024-01-30T03:48:47;3.63;;;3.13;;
34928;SDS011;21133;48.048;7.724;2024-01-30T03:51:13;4.00;;;3.80;;
34928;SDS011;21133;48.048;7.724;2024-01-30T03:53:41;5.57;;;5.13;;
34928;SDS011;21133;48.048;7.724;2024-01-30T03:56:07;3.57;;;3.47;;
34928;SDS011;21133;48.048;7.724;2024-01-30T03:58:33;3.43;;;3.23;;
34928;SDS011;21133;48.048;7.724;2024-01-30T04:00:59;3.73;;;3.43;;
34928;SDS011;21133;48.048;7.724;2024-01-30T04:03:25;3.47;;;3.17;;
34928;SDS011;21133;48.048;7.724;2024-01-30T04:05:51;4.50;;;3.87;;
34928;SDS011;21133;48.048;7.724;2024-01-30T04:08:17;3.17;;;2.57;;
34928;SDS011;21133;48.048;7.724;2024-01-30T04:10:43;3.33;;;3.23;;
34928;SDS011;21133;48.048;7.724;2024-01-30T04:13:09;2.40;;;2.40;;
34928;SDS011;21133;48.048;7.724;2024-01-30T04:15:35;4.60;;;4.27;;
34928;SDS011;21133;48.048;7.724;2024-01-30T04:18:02;2.97;;;2.83;;
34928;SDS011;21133;48.048;7.724;2024-01-30T04:20:28;2.70;;;2.60;;
34928;SDS011;21133;48.048;7.724;2024-01-30T04:22:54;2.77;;;2.77;;
34928;SDS011;21133;48.048;7.724;2024-01-30T04:25:20;5.63;;;2.97;;
34928;SDS011;21133;48.048;7.724;2024-01-30T04:27:47;2.90;;;2.80;;
34928;SDS011;21133;48.048;7.724;2024-01-30T04:30:13;2.93;;;2.73;;
34928;SDS011;21133;48.048;7.724;2024-01-30T04:32:39;4.67;;;3.83;;
34928;SDS011;21133;48.048;7.724;2024-01-30T04:35:05;4.70;;;3.90;;
34928;SDS011;21133;48.048;7.724;2024-01-30T04:37:31;4.17;;;3.93;;
34928;SDS011;21133;48.048;7.724;2024-01-30T04:39:57;7.00;;;5.97;;
34928;SDS011;21133;48.048;7.724;2024-01-30T04:42:23;15.50;;;5.83;;
34928;SDS011;21133;48.048;7.724;2024-01-30T04:44:49;4.90;;;4.50;;
34928;SDS011;21133;48.048;7.724;2024-01-30T04:47:15;6.87;;;4.83;;
34928;SDS011;21133;48.048;7.724;2024-01-30T04:49:41;4.57;;;4.23;;
34928;SDS011;21133;48.048;7.724;2024-01-30T04:52:07;4.07;;;3.80;;
34928;SDS011;21133;48.048;7.724;2024-01-30T04:54:33;3.17;;;3.00;;
34928;SDS011;21133;48.048;7.724;2024-01-30T04:57:00;9.00;;;4.67;;
34928;SDS011;21133;48.048;7.724;2024-01-30T04:59:26;3.47;;;3.37;;
34928;SDS011;21133;48.048;7.724;2024-01-30T05:01:52;2.77;;;2.77;;
34928;SDS011;21133;48.048;7.724;2024-01-30T05:04:18;3.90;;;3.70;;
34928;SDS011;21133;48.048;7.724;2024-01-30T05:06:44;2.50;;;2.40;;
34928;SDS011;21133;48.048;7.724;2024-01-30T05:09:10;2.23;;;2.23;;
34928;SDS011;21133;48.048;7.724;2024-01-30T05:11:37;2.63;;;2.33;;
34928;SDS011;21133;48.048;7.724;2024-01-30T05:14:03;2.27;;;2.27;;
34928;SDS011;21133;48.048;7.724;2024-01-30T05:16:29;2.00;;;2.00;;
34928;SDS011;21133;48.048;7.724;2024-01-30T05:18:55;3.50;;;1.90;;
34928;SDS011;21133;48.048;7.724;2024-01-30T05:21:21;2.50;;;2.30;;
34928;SDS011;21133;48.048;7.724;2024-01-30T05:23:47;2.90;;;2.80;;
34928;SDS011;21133;48.048;7.724;2024-01-30T05:26:13;3.00;;;2.90;;
34928;SDS011;21133;48.048;7.724;2024-01-30T05:28:39;2.93;;;2.57;;
34928;SDS011;21133;48.048;7.724;2024-01-30T05:31:05;2.40;;;2.30;;
34928;SDS011;21133;48.048;7.724;2024-01-30T05:33:31;2.50;;;2.40;;
34928;SDS011;21133;48.048;7.724;2024-01-30T05:35:57;1.70;;;1.60;;
34928;SDS011;21133;48.048;7.724;2024-01-30T05:38:23;2.33;;;2.27;;
34928;SDS011;21133;48.048;7.724;2024-01-30T05:40:49;2.20;;;2.10;;
34928;SDS011;21133;48.048;7.724;2024-01-30T05:43:15;2.50;;;2.40;;
34928;SDS011;21133;48.048;7.724;2024-01-30T05:45:41;4.23;;;3.53;;
34928;SDS011;21133;48.048;7.724;2024-01-30T05:48:07;5.00;;;3.13;;
34928;SDS011;21133;48.048;7.724;2024-01-30T05:50:33;2.23;;;2.23;;
34928;SDS011;21133;48.048;7.724;2024-01-30T05:52:59;1.83;;;1.83;;
34928;SDS011;21133;48.048;7.724;2024-01-30T05:55:25;2.70;;;2.50;;
34928;SDS011;21133;48.048;7.724;2024-01-30T05:57:51;2.97;;;2.77;;
34928;SDS011;21133;48.048;7.724;2024-01-30T06:00:17;2.50;;;2.40;;
34928;SDS011;21133;48.048;7.724;2024-01-30T06:39:05;2.80;;;2.70;;
34928;SDS011;21133;48.048;7.724;2024-01-30T06:41:31;2.30;;;2.30;;
34928;SDS011;21133;48.048;7.724;2024-01-30T06:43:56;12.67;;;9.40;;
34928;SDS011;21133;48.048;7.724;2024-01-30T06:46:22;7.80;;;6.83;;
34928;SDS011;21133;48.048;7.724;2024-01-30T06:48:48;3.83;;;3.73;;
34928;SDS011;21133;48.048;7.724;2024-01-30T06:51:14;14.77;;;7.97;;
34928;SDS011;21133;48.048;7.724;2024-01-30T06:53:40;7.97;;;6.90;;
34928;SDS011;21133;48.048;7.724;2024-01-30T06:56:06;8.97;;;5.90;;
34928;SDS011;21133;48.048;7.724;2024-01-30T06:58:32;3.80;;;3.17;;
34928;SDS011;21133;48.048;7.724;2024-01-30T07:00:58;3.80;;;3.67;;
34928;SDS011;21133;48.048;7.724;2024-01-30T07:03:24;5.27;;;4.77;;
34928;SDS011;21133;48.048;7.724;2024-01-30T13:37:17;3.07;;;2.83;;
34928;SDS011;21133;48.048;7.724;2024-01-30T13:39:43;6.77;;;3.10;;
34928;SDS011;21133;48.048;7.724;2024-01-30T13:42:10;3.07;;;2.80;;
34928;SDS011;21133;48.048;7.724;2024-01-30T13:44:36;2.43;;;2.43;;
34928;SDS011;21133;48.048;7.724;2024-01-30T13:47:02;2.10;;;2.00;;
34928;SDS011;21133;48.048;7.724;2024-01-30T13:49:28;3.50;;;2.83;;
34928;SDS011;21133;48.048;7.724;2024-01-30T13:51:54;2.90;;;2.77;;
34928;SDS011;21133;48.048;7.724;2024-01-30T13:54:20;2.80;;;2.80;;
34928;SDS011;21133;48.048;7.724;2024-01-30T13:56:46;2.97;;;2.83;;
34928;SDS011;21133;48.048;7.724;2024-01-30T13:59:12;2.67;;;2.50;;
34928;SDS011;21133;48.048;7.724;2024-01-30T14:01:38;2.43;;;2.37;;
34928;SDS011;21133;48.048;7.724;2024-01-30T14:04:04;5.90;;;5.40;;
34928;SDS011;21133;48.048;7.724;2024-01-30T14:06:30;3.33;;;2.70;;
34928;SDS011;21133;48.048;7.724;2024-01-30T14:08:56;2.97;;;2.87;;
34928;SDS011;21133;48.048;7.724;2024-01-30T14:11:23;14.63;;;3.27;;
34928;SDS011;21133;48.048;7.724;2024-01-30T14:13:49;2.43;;;2.00;;
34928;SDS011;21133;48.048;7.724;2024-01-30T14:16:17;3.77;;;3.30;;
34928;SDS011;21133;48.048;7.724;2024-01-30T21:11:20;2.73;;;2.60;;
34928;SDS011;21133;48.048;7.724;2024-01-30T21:13:46;2.60;;;1.97;;
34928;SDS011;21133;48.048;7.724;2024-01-30T21:16:13;2.57;;;2.37;;
34928;SDS011;21133;48.048;7.724;2024-01-30T21:18:39;2.50;;;2.20;;
34928;SDS011;21133;48.048;7.724;2024-01-30T21:21:07;2.30;;;2.20;;
34928;SDS011;21133;48.048;7.724;2024-01-30T21:23:33;2.50;;;2.30;;
34928;SDS011;21133;48.048;7.724;2024-01-30T21:25:59;2.60;;;2.60;;
34928;SDS011;21133;48.048;7.724;2024-01-30T21:28:28;2.40;;;2.30;;
34928;SDS011;21133;48.048;7.724;2024-01-30T21:30:54;2.97;;;2.60;;
34928;SDS011;21133;48.048;7.724;2024-01-30T21:33:20;2.67;;;2.57;;
34928;SDS011;21133;48.048;7.724;2024-01-30T21:35:46;4.80;;;3.10;;
34928;SDS011;21133;48.048;7.724;2024-01-30T21:38:12;2.50;;;2.33;;
34928;SDS011;21133;48.048;7.724;2024-01-30T21:40:40;3.97;;;3.67;;
34928;SDS011;21133;48.048;7.724;2024-01-30T21:43:06;3.63;;;3.27;;
34928;SDS011;21133;48.048;7.724;2024-01-30T21:45:32;7.70;;;6.17;;
34928;SDS011;21133;48.048;7.724;2024-01-30T21:47:58;14.10;;;10.83;;
34928;SDS011;21133;48.048;7.724;2024-01-30T21:50:24;19.47;;;13.80;;
34928;SDS011;21133;48.048;7.724;2024-01-30T21:52:50;12.00;;;10.70;;
34928;SDS011;21133;48.048;7.724;2024-01-30T21:55:17;18.70;;;12.00;;
34928;SDS011;21133;48.048;7.724;2024-01-30T21:57:43;16.57;;;12.70;;
34928;SDS011;21133;48.048;7.724;2024-01-30T22:00:10;18.07;;;12.87;;
34928;SDS011;21133;48.048;7.724;2024-01-30T22:02:36;21.90;;;12.73;;
34928;SDS011;21133;48.048;7.724;2024-01-30T22:05:03;8.40;;;7.60;;
34928;SDS011;21133;48.048;7.724;2024-01-30T22:07:29;14.67;;;9.17;;
34928;SDS011;21133;48.048;7.724;2024-01-30T22:09:55;7.53;;;6.87;;
34928;SDS011;21133;48.048;7.724;2024-01-30T22:12:21;7.70;;;4.83;;
34928;SDS011;21133;48.048;7.724;2024-01-30T22:14:47;5.87;;;4.33;;
34928;SDS011;21133;48.048;7.724;2024-01-30T22:17:13;4.50;;;3.93;;
34928;SDS011;21133;48.048;7.724;2024-01-30T22:19:40;4.30;;;4.00;;
34928;SDS011;21133;48.048;7.724;2024-01-30T22:22:06;11.23;;;9.70;;
34928;SDS011;21133;48.048;7.724;2024-01-30T22:24:32;14.77;;;11.27;;
34928;SDS011;21133;48.048;7.724;2024-01-30T22:26:58;13.20;;;10.17;;
34928;SDS011;21133;48.048;7.724;2024-01-30T22:29:24;8.10;;;7.40;;
34928;SDS011;21133;48.048;7.724;2024-01-30T22:31:50;6.70;;;6.07;;
34928;SDS011;21133;48.048;7.724;2024-01-30T22:34:16;5.97;;;5.50;;
34928;SDS011;21133;48.048;7.724;2024-01-30T22:36:43;4.73;;;4.33;;
34928;SDS011;21133;48.048;7.724;2024-01-30T22:39:09;5.83;;;5.33;;
34928;SDS011;21133;48.048;7.724;2024-01-30T22:41:35;5.13;;;4.77;;
34928;SDS011;21133;48.048;7.724;2024-01-30T22:44:01;4.53;;;4.27;;
34928;SDS011;21133;48.048;7.724;2024-01-30T22:46:27;4.60;;;3.80;;
34928;SDS011;21133;48.048;7.724;2024-01-30T22:48:54;3.80;;;3.70;;
34928;SDS011;21133;48.048;7.724;2024-01-30T22:51:19;4.37;;;4.07;;
34928;SDS011;21133;48.048;7.724;2024-01-30T22:53:46;12.27;;;7.10;;
34928;SDS011;21133;48.048;7.724;2024-01-30T22:56:15;10.40;;;5.90;;
34928;SDS011;21133;48.048;7.724;2024-01-30T22:58:41;8.50;;;6.10;;
34928;SDS011;21133;48.048;7.724;2024-01-30T23:01:07;8.00;;;5.63;;
34928;SDS011;21133;48.048;7.724;2024-01-30T23:03:33;5.83;;;5.30;;
34928;SDS011;21133;48.048;7.724;2024-01-30T23:05:59;13.50;;;6.90;;
34928;SDS011;21133;48.048;7.724;2024-01-30T23:08:25;5.90;;;5.40;;
34928;SDS011;21133;48.048;7.724;2024-01-30T23:10:51;7.10;;;5.87;;
34928;SDS011;21133;48.048;7.724;2024-01-30T23:13:17;5.03;;;4.63;;
34928;SDS011;21133;48.048;7.724;2024-01-30T23:15:43;5.03;;;4.33;;
34928;SDS011;21133;48.048;7.724;2024-01-30T23:18:09;6.60;;;5.57;;
34928;SDS011;21133;48.048;7.724;2024-01-30T23:20:35;4.50;;;4.07;;
34928;SDS011;21133;48.048;7.724;2024-01-30T23:23:04;6.73;;;5.30;;
34928;SDS011;21133;48.048;7.724;2024-01-30T23:25:31;5.00;;;4.60;;
34928;SDS011;21133;48.048;7.724;2024-01-30T23:27:57;4.93;;;4.10;;
34928;SDS011;21133;48.048;7.724;2024-01-30T23:30:23;9.10;;;4.80;;
34928;SDS011;21133;48.048;7.724;2024-01-30T23:32:49;5.87;;;5.37;;
34928;SDS011;21133;48.048;7.724;2024-01-30T23:35:18;12.40;;;8.80;;
34928;SDS011;21133;48.048;7.724;2024-01-30T23:37:44;7.33;;;6.10;;
34928;SDS011;21133;48.048;7.724;2024-01-30T23:40:13;11.63;;;6.30;;
34928;SDS011;21133;48.048;7.724;2024-01-30T23:42:40;8.83;;;7.93;;
34928;SDS011;21133;48.048;7.724;2024-01-30T23:45:06;5.40;;;5.10;;
34928;SDS011;21133;48.048;7.724;2024-01-30T23:47:32;8.57;;;7.67;;
34928;SDS011;21133;48.048;7.724;2024-01-30T23:49:58;7.47;;;6.87;;
34928;SDS011;21133;48.048;7.724;2024-01-30T23:52:24;18.90;;;7.60;;
34928;SDS011;21133;48.048;7.724;2024-01-30T23:54:50;9.77;;;8.70;;
34928;SDS011;21133;48.048;7.724;2024-01-30T23:57:16;7.03;;;6.47;;
34928;SDS011;21133;48.048;7.724;2024-01-30T23:59:42;5.70;;;5.23;;
